Aérodrome :







RETROUVEZ-NOUS SUR...

 
LOGIN :

S'inscrire | Disclaimer

   EN    FR    IT 

 









Légende :    VFR   VFR Marginal   IFR   IFR Intensif   IFR Très Intensif
Visi : 
Plafond : 
>= 8 km
>= 3000ft
5 à 8 km
1000 à 3000 ft
1500m à 5 km
500 à 1000 ft
800 à 1500m
200 à 500 ft
< 800m
< 200 ft
Symboles :   Orages  Brouillard  Fortes neiges  Fortes précipitations  Vent > 20 kt






- Altitude de l'aérodrome : 271 ft


KBAF - Barnes Municipal

DERNIER METAR :
  • 190136Z 00000KT 1 1/4SM -SN BR OVC014 M07/M09 A2992 RMK AO2 P0002 T10721089

METARs EXPIRÉS :
  • 190126Z 00000KT 1 1/4SM -SN BR OVC015 M07/M09 A2993 RMK AO2 PRESFR P0002 T10721089
  • 190110Z 00000KT 1 1/4SM -SN BR OVC015 M07/M09 A2995 RMK AO2 PRESFR P0001 T10721089
  • 190053Z 00000KT 1 1/4SM -SN BR OVC013 M07/M09 A2998 RMK AO2 SLP161 P0009 T10721094
  • 182353Z 17003KT 1/2SM R20/3000V4500FT SN FZFG VV007 M07/M09 A3005 RMK AO2 PRESFR SLP186 P0007 60014 T10721089 11061 21078 58039
  • 182341Z 18005KT 3/4SM R20/4000V5000FT -SN BR VV008 M07/M09 A3007 RMK AO2 P0005 T10721094
  • 182318Z 00000KT 3/4SM R20/4500VP6000FT -SN BR VV013 M07/M09 A3008 RMK AO2 P0002 T10721094
  • 182310Z 00000KT 1SM R20/5500VP6000FT -SN BR VV015 M07/M09 A3008 RMK AO2 PRESFR P0001 T10721094
  • 182253Z 17003KT 1SM R20/5000VP6000FT -SN BR VV014 M07/M09 A3011 RMK AO2 SLP206 P0005 T10721094
  • 182235Z 15003KT 1SM R20/5000VP6000FT -SN BR VV013 M08/M09 A3012 RMK AO2 P0003 T10781094

TAF KBAF
Valide du 19 à 00h jusqu'au 20 à 00h UTC


190014Z 1900/1924 15004KT 1/2SM SN FG OVC007
FM190200 18003KT 1/2SM SN SCT008 OVC015
FM190400 18003KT 3SM -SN OVC010
FM190600 00000KT 3SM BR OVC008
FM191200 27006KT P6SM BKN015
FM191400 28008KT P6SM SCT100



MET'MAP, la Météo Aéronautique d'un coup d'oeil ! - Copyright ORBIFLY Décembre 2007 - Disclaimer

ORBIFLY MET'MAP TEAM :

Programmation & Développement : Alexandra Zaïnal
Sur une idée originale de : Baudouin d'Aumeries
Assistance à la programmation : Marc-Olivier Méhu
Soutien technique & logistique : Manuel Goepfert

Contact : metmap@orbifly.com




SOURCES & CREDITS :

   NOAA